createdAt,value
2017-02-17T00:00:03.110Z,22.76
2017-02-17T00:00:31.146Z,22.81
2017-02-17T00:00:59.421Z,22.71
2017-02-17T00:01:27.593Z,22.73
2017-02-17T00:01:55.680Z,22.78
2017-02-17T00:02:23.525Z,22.76
2017-02-17T00:02:51.660Z,22.86
2017-02-17T00:03:19.863Z,22.78
2017-02-17T00:03:48.004Z,22.86
2017-02-17T00:04:16.022Z,22.86
2017-02-17T00:04:44.232Z,22.89
2017-02-17T00:05:12.301Z,22.89
2017-02-17T00:05:40.635Z,22.88
2017-02-17T00:06:08.768Z,22.85
2017-02-17T00:06:36.983Z,22.78
2017-02-17T00:07:05.094Z,22.73
2017-02-17T00:07:33.052Z,22.78
2017-02-17T00:08:01.161Z,22.67
2017-02-17T00:08:29.157Z,22.67
2017-02-17T00:08:57.296Z,22.67
2017-02-17T00:09:25.408Z,22.81
2017-02-17T00:09:53.514Z,22.84
2017-02-17T00:10:21.411Z,22.82
2017-02-17T00:10:49.712Z,22.79
2017-02-17T00:11:17.948Z,22.71
2017-02-17T00:11:46.135Z,22.78
2017-02-17T00:12:14.348Z,22.79
2017-02-17T00:12:42.464Z,22.75
2017-02-17T00:13:10.656Z,22.82
2017-02-17T00:13:38.828Z,22.89
2017-02-17T00:14:06.972Z,22.85
2017-02-17T00:14:35.054Z,22.86
2017-02-17T00:15:03.212Z,22.85
2017-02-17T00:15:31.276Z,22.85
2017-02-17T00:15:59.515Z,22.84
2017-02-17T00:16:27.690Z,22.85
2017-02-17T00:16:55.810Z,22.76
2017-02-17T00:17:24.050Z,22.78
2017-02-17T00:17:52.087Z,22.75
2017-02-17T00:18:20.022Z,22.73
2017-02-17T00:18:48.217Z,22.64
2017-02-17T00:19:16.429Z,22.66
2017-02-17T00:19:44.359Z,22.73
2017-02-17T00:20:12.521Z,22.69
2017-02-17T00:20:40.664Z,22.75
2017-02-17T00:21:08.991Z,22.73
2017-02-17T00:21:36.936Z,22.7
2017-02-17T00:22:04.992Z,22.7
2017-02-17T00:22:33.128Z,22.69
2017-02-17T00:23:01.137Z,22.64
2017-02-17T00:23:29.287Z,22.63
2017-02-17T00:23:57.499Z,22.69
2017-02-17T00:24:25.513Z,22.69
2017-02-17T00:24:53.671Z,22.61
2017-02-17T00:25:21.762Z,22.73
2017-02-17T00:25:49.946Z,22.6
2017-02-17T00:26:18.062Z,22.66
2017-02-17T00:26:46.181Z,22.67
2017-02-17T00:27:14.323Z,22.66
2017-02-17T00:27:42.497Z,22.69
2017-02-17T00:28:10.679Z,22.76
2017-02-17T00:28:38.796Z,22.7
2017-02-17T00:29:06.899Z,22.66
2017-02-17T00:29:35.042Z,22.71
2017-02-17T00:30:03.110Z,22.7
2017-02-17T00:30:31.202Z,22.69
2017-02-17T00:30:59.445Z,22.64
2017-02-17T00:31:27.487Z,22.7
2017-02-17T00:31:55.593Z,22.66
2017-02-17T00:32:23.787Z,22.7
2017-02-17T00:32:51.864Z,22.76
2017-02-17T00:33:19.957Z,22.71
2017-02-17T00:33:47.955Z,22.78
2017-02-17T00:34:15.978Z,22.79
2017-02-17T00:34:44.097Z,22.69
2017-02-17T00:35:12.209Z,22.69
2017-02-17T00:35:40.391Z,22.73
2017-02-17T00:36:08.561Z,22.69
2017-02-17T00:36:36.643Z,22.69
2017-02-17T00:37:04.814Z,22.71
2017-02-17T00:37:33.004Z,22.76
2017-02-17T00:38:01.123Z,22.79
2017-02-17T00:38:29.128Z,22.79
2017-02-17T00:38:57.203Z,22.81
2017-02-17T00:39:25.110Z,22.78
2017-02-17T00:39:53.213Z,22.64
2017-02-17T00:40:21.238Z,22.7
2017-02-17T00:40:49.425Z,22.69
2017-02-17T00:41:17.913Z,22.69
2017-02-17T00:41:45.828Z,22.7
2017-02-17T00:42:13.913Z,22.7
2017-02-17T00:42:42.025Z,22.69
2017-02-17T00:43:10.047Z,22.7
2017-02-17T00:43:38.237Z,22.73
2017-02-17T00:44:06.382Z,22.69
2017-02-17T00:44:34.498Z,22.67
2017-02-17T00:45:02.627Z,22.67
2017-02-17T00:45:30.833Z,22.67
2017-02-17T00:45:58.964Z,22.64
2017-02-17T00:46:27.232Z,22.7
2017-02-17T00:46:55.209Z,22.69
2017-02-17T00:47:23.240Z,22.71
2017-02-17T00:47:51.398Z,22.66
2017-02-17T00:48:19.284Z,22.67
2017-02-17T00:48:47.504Z,22.66
2017-02-17T00:49:15.691Z,22.66
2017-02-17T00:49:43.707Z,22.7
2017-02-17T00:50:11.919Z,22.61
2017-02-17T00:50:40.027Z,22.64
2017-02-17T00:51:08.284Z,22.64
2017-02-17T00:51:36.516Z,22.6
2017-02-17T00:52:04.646Z,22.6
2017-02-17T00:52:32.750Z,22.59
2017-02-17T00:53:00.871Z,22.59
2017-02-17T00:53:28.791Z,22.6
2017-02-17T00:53:56.727Z,22.57
2017-02-17T00:54:24.832Z,22.63
2017-02-17T00:54:52.952Z,22.64
2017-02-17T00:55:20.864Z,22.63
2017-02-17T00:55:48.893Z,22.61
2017-02-17T00:56:17.103Z,22.54
2017-02-17T00:56:45.189Z,22.55
2017-02-17T00:57:13.280Z,22.59
2017-02-17T00:57:41.438Z,22.55
2017-02-17T00:58:09.429Z,22.59
2017-02-17T00:58:37.649Z,22.57
2017-02-17T00:59:05.869Z,22.59
2017-02-17T00:59:34.095Z,22.59
2017-02-17T01:00:02.261Z,22.54
2017-02-17T01:00:30.377Z,22.55
2017-02-17T01:00:58.413Z,22.57
2017-02-17T01:01:26.440Z,22.51
2017-02-17T01:01:54.706Z,22.52
2017-02-17T01:02:22.799Z,22.49
2017-02-17T01:02:51.006Z,22.52
2017-02-17T01:03:19.050Z,22.49
2017-02-17T01:03:47.144Z,22.55
2017-02-17T01:04:15.183Z,22.57
2017-02-17T01:04:43.382Z,22.49
2017-02-17T01:05:11.552Z,22.51
2017-02-17T01:05:39.723Z,22.51
2017-02-17T01:06:07.752Z,22.52
2017-02-17T01:06:35.864Z,22.55
2017-02-17T01:07:03.812Z,22.51
2017-02-17T01:07:31.898Z,22.52
2017-02-17T01:07:59.906Z,22.54
2017-02-17T01:08:27.889Z,22.48
2017-02-17T01:08:56.126Z,22.51
2017-02-17T01:09:24.203Z,22.44
2017-02-17T01:09:52.120Z,22.39
2017-02-17T01:10:20.287Z,22.39
2017-02-17T01:10:48.508Z,22.38
2017-02-17T01:11:16.568Z,22.34
2017-02-17T01:11:44.747Z,22.3
2017-02-17T01:12:12.828Z,22.34
2017-02-17T01:12:40.890Z,22.18
2017-02-17T01:13:09.020Z,22.29
2017-02-17T01:13:37.105Z,22.18
2017-02-17T01:14:05.306Z,22.24
2017-02-17T01:14:33.567Z,22.23
2017-02-17T01:15:01.664Z,22.3
2017-02-17T01:15:29.762Z,22.24
2017-02-17T01:15:57.916Z,22.2
2017-02-17T01:16:26.066Z,22.2
2017-02-17T01:16:54.104Z,22.2
2017-02-17T01:17:22.259Z,22.14
2017-02-17T01:17:50.354Z,22.14
2017-02-17T01:18:18.534Z,22.12
2017-02-17T01:18:46.672Z,22.14
2017-02-17T01:19:14.800Z,22.09
2017-02-17T01:19:42.997Z,22.16
2017-02-17T01:20:11.226Z,22.23
2017-02-17T01:20:39.210Z,22.16
2017-02-17T01:21:07.274Z,22.15
2017-02-17T01:21:35.610Z,22.11
2017-02-17T01:22:03.702Z,22.18
2017-02-17T01:22:31.756Z,22.22
2017-02-17T01:22:59.890Z,22.26
2017-02-17T01:23:27.921Z,22.2
2017-02-17T01:23:56.104Z,22.27
2017-02-17T01:24:24.193Z,22.31
2017-02-17T01:24:52.348Z,22.27
2017-02-17T01:25:20.611Z,22.2
2017-02-17T01:25:48.671Z,22.2
2017-02-17T01:26:16.880Z,22.22
2017-02-17T01:26:45.136Z,22.2
2017-02-17T01:27:13.056Z,22.14
2017-02-17T01:27:41.314Z,22.14
2017-02-17T01:28:09.319Z,22.11
2017-02-17T01:28:37.419Z,22.11
2017-02-17T01:29:05.555Z,22.05
2017-02-17T01:29:33.681Z,22
2017-02-17T01:30:01.822Z,21.97
2017-02-17T01:30:30.003Z,22
2017-02-17T01:30:58.214Z,22.04
2017-02-17T01:31:26.387Z,21.93
2017-02-17T01:31:54.487Z,21.99
2017-02-17T01:32:22.525Z,21.8
2017-02-17T01:32:50.535Z,21.85
2017-02-17T01:33:18.592Z,21.89
2017-02-17T01:33:46.685Z,21.86
2017-02-17T01:34:14.811Z,21.83
2017-02-17T01:34:42.925Z,21.77
2017-02-17T01:35:10.994Z,21.82
2017-02-17T01:35:39.150Z,21.7
2017-02-17T01:36:07.320Z,21.73
2017-02-17T01:36:35.410Z,21.76
2017-02-17T01:37:03.723Z,21.73
2017-02-17T01:37:31.797Z,21.71
2017-02-17T01:38:00.003Z,21.59
2017-02-17T01:38:28.211Z,21.56
2017-02-17T01:38:56.428Z,21.71
2017-02-17T01:39:24.542Z,21.55
2017-02-17T01:39:52.735Z,21.55
2017-02-17T01:40:20.834Z,21.66
2017-02-17T01:40:49.098Z,21.62
2017-02-17T01:41:17.186Z,21.64
2017-02-17T01:41:45.275Z,21.62
2017-02-17T01:42:13.384Z,21.66
2017-02-17T01:42:41.598Z,21.52
2017-02-17T01:43:09.681Z,21.56
2017-02-17T01:43:37.851Z,21.71
2017-02-17T01:44:05.875Z,21.67
2017-02-17T01:44:33.731Z,21.73
2017-02-17T01:45:01.828Z,21.74
2017-02-17T01:45:29.933Z,21.73
2017-02-17T01:45:58.092Z,21.73
2017-02-17T01:46:26.264Z,21.73
2017-02-17T01:46:54.409Z,21.77
2017-02-17T01:47:22.539Z,21.78
2017-02-17T01:47:50.674Z,21.8
2017-02-17T01:48:18.765Z,21.8
2017-02-17T01:48:46.990Z,21.77
2017-02-17T01:49:14.995Z,21.82
2017-02-17T01:49:43.251Z,21.82
2017-02-17T01:50:11.382Z,21.85
2017-02-17T01:50:39.295Z,21.92
2017-02-17T01:51:07.506Z,21.82
2017-02-17T01:51:35.613Z,21.82
2017-02-17T01:52:04.084Z,21.93
2017-02-17T01:52:32.278Z,21.86
2017-02-17T01:53:00.382Z,21.92
2017-02-17T01:53:28.570Z,21.89
2017-02-17T01:53:56.691Z,21.8
2017-02-17T01:54:24.843Z,21.85
2017-02-17T01:54:52.905Z,21.86
2017-02-17T01:55:21.042Z,21.93
2017-02-17T01:55:49.304Z,21.89
2017-02-17T01:56:17.546Z,21.85
2017-02-17T01:56:45.686Z,21.89
2017-02-17T01:57:13.902Z,21.93
2017-02-17T01:57:41.993Z,21.9
2017-02-17T01:58:10.043Z,21.83
2017-02-17T01:58:38.156Z,21.83
2017-02-17T01:59:06.147Z,21.77
2017-02-17T01:59:34.213Z,21.8
2017-02-17T02:00:02.212Z,21.8
2017-02-17T02:00:30.432Z,21.83
2017-02-17T02:00:58.498Z,21.83
2017-02-17T02:01:26.623Z,21.83
2017-02-17T02:01:54.689Z,21.82
2017-02-17T02:02:22.802Z,21.77
2017-02-17T02:02:50.701Z,21.83
2017-02-17T02:03:18.885Z,21.82
2017-02-17T02:03:47.025Z,21.82
2017-02-17T02:04:15.248Z,21.83
2017-02-17T02:04:43.490Z,21.82
2017-02-17T02:05:11.463Z,21.83
2017-02-17T02:05:39.610Z,21.73
2017-02-17T02:06:07.727Z,21.73
2017-02-17T02:06:35.964Z,21.64
2017-02-17T02:07:04.156Z,21.73
2017-02-17T02:07:32.320Z,21.66
2017-02-17T02:08:00.359Z,21.67
2017-02-17T02:08:28.609Z,21.71
2017-02-17T02:08:56.840Z,21.7
2017-02-17T02:09:24.806Z,21.61
2017-02-17T02:09:52.969Z,21.56
2017-02-17T02:10:21.009Z,21.58
2017-02-17T02:10:49.230Z,21.48
2017-02-17T02:11:17.126Z,21.43
2017-02-17T02:11:45.291Z,21.48
2017-02-17T02:12:13.315Z,21.41
2017-02-17T02:12:41.483Z,21.43
2017-02-17T02:13:09.573Z,21.43
2017-02-17T02:13:37.694Z,21.49
2017-02-17T02:14:05.787Z,21.46
2017-02-17T02:14:34.006Z,21.43
2017-02-17T02:15:02.040Z,21.48
2017-02-17T02:15:30.178Z,21.51
2017-02-17T02:15:58.352Z,21.56
2017-02-17T02:16:26.475Z,21.55
2017-02-17T02:16:54.464Z,21.62
2017-02-17T02:17:22.765Z,21.61
2017-02-17T02:17:50.929Z,21.55
2017-02-17T02:18:18.954Z,21.7
2017-02-17T02:18:47.167Z,21.73
2017-02-17T02:19:15.282Z,21.7
2017-02-17T02:19:43.453Z,21.68
2017-02-17T02:20:11.428Z,21.7
2017-02-17T02:20:39.638Z,21.8
2017-02-17T02:21:07.686Z,21.78
2017-02-17T02:21:35.897Z,21.85
2017-02-17T02:22:04.243Z,21.76
2017-02-17T02:22:32.291Z,21.82
2017-02-17T02:23:00.439Z,21.85
2017-02-17T02:23:28.421Z,21.8
2017-02-17T02:23:56.488Z,21.78
2017-02-17T02:24:24.607Z,21.8
2017-02-17T02:24:52.554Z,21.9
2017-02-17T02:25:20.629Z,21.9
2017-02-17T02:25:48.732Z,21.93
2017-02-17T02:26:16.849Z,21.83
2017-02-17T02:26:44.993Z,21.89
2017-02-17T02:27:13.150Z,21.9
2017-02-17T02:27:41.197Z,21.89
2017-02-17T02:28:09.361Z,21.99
2017-02-17T02:28:37.403Z,21.96
2017-02-17T02:29:05.520Z,22.02
2017-02-17T02:29:33.548Z,21.9
2017-02-17T02:30:01.677Z,21.9
2017-02-17T02:30:29.619Z,21.9
2017-02-17T02:30:57.549Z,21.86
2017-02-17T02:31:25.748Z,21.9
2017-02-17T02:31:53.680Z,21.94
2017-02-17T02:32:22.167Z,21.94
2017-02-17T02:32:50.295Z,21.94
2017-02-17T02:33:18.566Z,21.94
2017-02-17T02:33:46.754Z,21.94
2017-02-17T02:34:14.749Z,22.04
2017-02-17T02:34:42.864Z,22
2017-02-17T02:35:10.880Z,21.92
2017-02-17T02:35:38.973Z,21.99
2017-02-17T02:36:07.169Z,22.04
2017-02-17T02:36:35.420Z,21.94
2017-02-17T02:37:03.615Z,21.97
2017-02-17T02:37:32.062Z,21.96
2017-02-17T02:37:59.960Z,22.02
2017-02-17T02:38:28.026Z,21.93
2017-02-17T02:38:56.206Z,21.93
2017-02-17T02:39:24.310Z,21.92
2017-02-17T02:39:52.416Z,21.92
2017-02-17T02:40:20.627Z,22.05
2017-02-17T02:40:48.739Z,21.97
2017-02-17T02:41:16.852Z,21.94
2017-02-17T02:41:45.015Z,21.97
2017-02-17T02:42:13.149Z,22
2017-02-17T02:42:41.310Z,22
2017-02-17T02:43:09.507Z,21.99
2017-02-17T02:43:37.663Z,21.97
2017-02-17T02:44:05.786Z,21.86
2017-02-17T02:44:33.867Z,21.92
2017-02-17T02:45:01.990Z,21.89
2017-02-17T02:45:30.103Z,21.83
2017-02-17T02:45:58.255Z,21.86
2017-02-17T02:46:27.252Z,21.83
2017-02-17T02:46:55.339Z,21.85
2017-02-17T02:47:23.464Z,21.83
2017-02-17T02:47:51.664Z,21.71
2017-02-17T02:48:19.843Z,21.77
2017-02-17T02:48:47.813Z,21.71
2017-02-17T02:49:16.041Z,21.71
2017-02-17T02:49:44.211Z,21.67
2017-02-17T02:50:12.292Z,21.59
2017-02-17T02:50:40.415Z,21.61
2017-02-17T02:51:08.464Z,21.56
2017-02-17T02:51:36.493Z,21.51
2017-02-17T02:52:04.668Z,21.58
2017-02-17T02:52:32.702Z,21.52
2017-02-17T02:53:00.933Z,21.48
2017-02-17T02:53:29.200Z,21.59
2017-02-17T02:53:57.356Z,21.49
2017-02-17T02:54:25.529Z,21.51
2017-02-17T02:54:53.619Z,21.46
2017-02-17T02:55:21.734Z,21.4
2017-02-17T02:55:49.890Z,21.46
2017-02-17T02:56:17.942Z,21.4
2017-02-17T02:56:46.168Z,21.51
2017-02-17T02:57:14.387Z,21.45
2017-02-17T02:57:42.669Z,21.41
2017-02-17T02:58:10.848Z,21.38
2017-02-17T02:58:38.803Z,21.43
2017-02-17T02:59:06.862Z,21.37
2017-02-17T02:59:35.032Z,21.38
2017-02-17T03:00:03.153Z,21.36
2017-02-17T03:00:31.167Z,21.38
2017-02-17T03:00:59.261Z,21.38
2017-02-17T03:01:27.321Z,21.33
2017-02-17T03:01:55.558Z,21.37
2017-02-17T03:02:23.816Z,21.28
2017-02-17T03:02:52.012Z,21.4
2017-02-17T03:03:20.153Z,21.36
2017-02-17T03:03:48.331Z,21.38
2017-02-17T03:04:16.437Z,21.41
2017-02-17T03:04:44.589Z,21.37
2017-02-17T03:05:12.614Z,21.33
2017-02-17T03:05:40.810Z,21.37
2017-02-17T03:06:08.969Z,21.37
2017-02-17T03:06:37.010Z,21.34
2017-02-17T03:07:05.230Z,21.28
2017-02-17T03:07:33.701Z,21.34
2017-02-17T03:08:01.895Z,21.38
2017-02-17T03:08:29.853Z,21.38
2017-02-17T03:08:57.929Z,21.31
2017-02-17T03:09:26.036Z,21.31
2017-02-17T03:09:54.040Z,21.27
2017-02-17T03:10:22.163Z,21.27
2017-02-17T03:10:50.358Z,21.23
2017-02-17T03:11:18.553Z,21.27
2017-02-17T03:11:46.729Z,21.25
2017-02-17T03:12:14.859Z,21.15
2017-02-17T03:12:43.362Z,21.15
2017-02-17T03:13:11.614Z,21.15
2017-02-17T03:13:39.844Z,21.16
2017-02-17T03:14:07.984Z,21.13
2017-02-17T03:14:35.947Z,21.04
2017-02-17T03:15:03.991Z,21.09
2017-02-17T03:15:32.126Z,21.06
2017-02-17T03:16:00.152Z,21.06
2017-02-17T03:16:28.312Z,21.16
2017-02-17T03:16:56.327Z,21.06
2017-02-17T03:17:24.293Z,21.12
2017-02-17T03:17:52.497Z,21.04
2017-02-17T03:18:20.656Z,20.96
2017-02-17T03:18:48.775Z,21.03
2017-02-17T03:19:17.011Z,21.01
2017-02-17T03:19:45.212Z,21.01
2017-02-17T03:20:13.358Z,21.03
2017-02-17T03:20:41.473Z,21
2017-02-17T03:21:09.551Z,20.98
2017-02-17T03:21:37.778Z,20.98
2017-02-17T03:22:05.864Z,21.03
2017-02-17T03:22:33.992Z,21.01
2017-02-17T03:23:02.203Z,20.98
2017-02-17T03:23:30.355Z,20.98
2017-02-17T03:23:58.366Z,21.01
2017-02-17T03:24:26.489Z,20.98
2017-02-17T03:24:54.727Z,21.01
2017-02-17T03:25:22.850Z,21.01
2017-02-17T03:25:50.866Z,21.06
2017-02-17T03:26:19.073Z,20.98
2017-02-17T03:26:46.957Z,20.98
2017-02-17T03:27:15.160Z,21.04
2017-02-17T03:27:43.373Z,21.12
2017-02-17T03:28:11.295Z,21.04
2017-02-17T03:28:39.315Z,21.09
2017-02-17T03:29:07.405Z,21.04
2017-02-17T03:29:35.547Z,21.09
2017-02-17T03:30:03.649Z,21.08
2017-02-17T03:30:31.695Z,21.12
2017-02-17T03:30:59.969Z,21.12
2017-02-17T03:31:28.042Z,21.08
2017-02-17T03:31:56.220Z,21.04
2017-02-17T03:32:24.234Z,21.04
2017-02-17T03:32:52.330Z,21.01
2017-02-17T03:33:20.468Z,21.03
2017-02-17T03:33:48.645Z,21.03
2017-02-17T03:34:16.635Z,20.96
2017-02-17T03:34:44.864Z,21
2017-02-17T03:35:13.061Z,21.03
2017-02-17T03:35:41.062Z,20.97
2017-02-17T03:36:09.121Z,21
2017-02-17T03:36:37.251Z,21.03
2017-02-17T03:37:05.472Z,20.98
2017-02-17T03:37:33.498Z,21.01
2017-02-17T03:38:01.850Z,20.96
2017-02-17T03:38:29.968Z,21.04
2017-02-17T03:38:58.124Z,21
2017-02-17T03:39:26.244Z,20.98
2017-02-17T03:39:54.237Z,21.01
2017-02-17T03:40:22.286Z,21.04
2017-02-17T03:40:50.430Z,20.93
2017-02-17T03:41:18.486Z,20.94
2017-02-17T03:41:46.542Z,20.96
2017-02-17T03:42:14.548Z,20.91
2017-02-17T03:42:42.694Z,20.9
2017-02-17T03:43:11.037Z,20.88
2017-02-17T03:43:39.225Z,20.9
2017-02-17T03:44:07.158Z,20.88
2017-02-17T03:44:35.414Z,20.82
2017-02-17T03:45:03.602Z,20.83
2017-02-17T03:45:31.696Z,20.82
2017-02-17T03:45:59.711Z,20.76
2017-02-17T03:46:27.786Z,20.76
2017-02-17T03:46:55.938Z,20.82
2017-02-17T03:47:23.894Z,20.76
2017-02-17T03:47:51.879Z,20.75
2017-02-17T03:48:20.189Z,20.72
2017-02-17T03:48:48.429Z,20.74
2017-02-17T03:49:16.437Z,20.78
2017-02-17T03:49:44.656Z,20.76
2017-02-17T03:50:12.712Z,20.81
2017-02-17T03:50:40.844Z,20.76
2017-02-17T03:51:09.035Z,20.81
2017-02-17T03:51:37.220Z,20.81
2017-02-17T03:52:05.341Z,20.82
2017-02-17T03:52:33.508Z,20.78
2017-02-17T03:53:01.845Z,20.82
2017-02-17T03:53:29.999Z,20.75
2017-02-17T03:53:57.901Z,20.72
2017-02-17T03:54:26.024Z,20.78
2017-02-17T03:54:54.239Z,20.79
2017-02-17T03:55:22.253Z,20.72
2017-02-17T03:55:50.361Z,20.82
2017-02-17T03:56:18.521Z,20.81
2017-02-17T03:56:46.661Z,20.82
2017-02-17T03:57:14.664Z,20.82
2017-02-17T03:57:42.891Z,20.79
2017-02-17T03:58:11.102Z,20.85
2017-02-17T03:58:39.316Z,20.83
2017-02-17T03:59:07.394Z,20.76
2017-02-17T03:59:50.119Z,20.74
2017-02-17T04:00:18.376Z,20.76
2017-02-17T04:00:46.514Z,20.75
2017-02-17T04:01:14.504Z,20.68
2017-02-17T04:01:42.623Z,20.76
2017-02-17T04:02:10.817Z,20.75
2017-02-17T04:02:38.896Z,20.67
2017-02-17T04:03:07.051Z,20.66
2017-02-17T04:03:35.161Z,20.71
2017-02-17T04:04:03.378Z,20.61
2017-02-17T04:04:31.562Z,20.61
2017-02-17T04:04:59.587Z,20.61
2017-02-17T04:05:27.627Z,20.6
2017-02-17T04:05:55.787Z,20.6
2017-02-17T04:06:24.016Z,20.61
2017-02-17T04:06:52.131Z,20.6
2017-02-17T04:07:20.330Z,20.58
2017-02-17T04:07:48.392Z,20.6
2017-02-17T04:08:16.660Z,20.58
2017-02-17T04:08:44.861Z,20.6
2017-02-17T04:09:12.832Z,20.51
2017-02-17T04:09:40.965Z,20.48
2017-02-17T04:10:09.109Z,20.41
2017-02-17T04:10:37.197Z,20.49
2017-02-17T04:11:05.331Z,20.49
2017-02-17T04:11:33.427Z,20.46
2017-02-17T04:12:01.550Z,20.51
2017-02-17T04:12:29.630Z,20.53
2017-02-17T04:12:57.674Z,20.46
2017-02-17T04:13:25.966Z,20.53
2017-02-17T04:13:54.214Z,20.46
2017-02-17T04:14:22.209Z,20.46
2017-02-17T04:14:50.388Z,20.51
2017-02-17T04:15:18.619Z,20.48
2017-02-17T04:15:46.722Z,20.53
2017-02-17T04:16:14.816Z,20.6
2017-02-17T04:16:43.091Z,20.44
2017-02-17T04:17:11.209Z,20.51
2017-02-17T04:17:39.248Z,20.56
2017-02-17T04:18:07.436Z,20.51
2017-02-17T04:18:35.760Z,20.49
2017-02-17T04:19:03.855Z,20.48
2017-02-17T04:19:31.783Z,20.48
2017-02-17T04:19:59.817Z,20.44
2017-02-17T04:20:27.903Z,20.35
2017-02-17T04:20:56.037Z,20.32
2017-02-17T04:21:24.073Z,20.41
2017-02-17T04:21:52.216Z,20.4
2017-02-17T04:22:20.372Z,20.4
2017-02-17T04:22:48.518Z,20.37
2017-02-17T04:23:16.546Z,20.42
2017-02-17T04:23:44.774Z,20.42
2017-02-17T04:24:12.946Z,20.34
2017-02-17T04:24:41.176Z,20.34
2017-02-17T04:25:09.286Z,20.38
2017-02-17T04:25:37.451Z,20.35
2017-02-17T04:26:05.577Z,20.4
2017-02-17T04:26:33.783Z,20.44
2017-02-17T04:27:01.718Z,20.42
2017-02-17T04:27:29.647Z,20.38
2017-02-17T04:27:57.869Z,20.34
2017-02-17T04:28:26.117Z,20.35
2017-02-17T04:28:54.179Z,20.4
2017-02-17T04:29:22.311Z,20.44
2017-02-17T04:29:50.419Z,20.4
2017-02-17T04:30:18.563Z,20.37
2017-02-17T04:30:46.725Z,20.41
2017-02-17T04:31:14.801Z,20.37
2017-02-17T04:31:43.022Z,20.41
2017-02-17T04:32:11.062Z,20.41
2017-02-17T04:32:39.110Z,20.4
2017-02-17T04:33:07.344Z,20.38
2017-02-17T04:33:35.492Z,20.35
2017-02-17T04:34:03.639Z,20.35
2017-02-17T04:34:31.843Z,20.29
2017-02-17T04:34:59.997Z,20.41
2017-02-17T04:35:28.205Z,20.41
2017-02-17T04:35:56.289Z,20.46
2017-02-17T04:36:24.376Z,20.41
2017-02-17T04:36:52.567Z,20.42
2017-02-17T04:37:20.669Z,20.32
2017-02-17T04:37:48.770Z,20.41
2017-02-17T04:38:16.935Z,20.35
2017-02-17T04:38:45.146Z,20.32
2017-02-17T04:39:13.164Z,20.35
2017-02-17T04:39:41.211Z,20.34
2017-02-17T04:40:09.370Z,20.34
2017-02-17T04:40:37.501Z,20.37
2017-02-17T04:41:05.498Z,20.32
2017-02-17T04:41:33.545Z,20.35
2017-02-17T04:42:01.699Z,20.3
2017-02-17T04:42:29.912Z,20.29
2017-02-17T04:42:58.178Z,20.3
2017-02-17T04:43:26.136Z,20.37
2017-02-17T04:43:54.410Z,20.35
2017-02-17T04:44:22.555Z,20.4
2017-02-17T04:44:50.759Z,20.4
2017-02-17T04:45:18.863Z,20.38
2017-02-17T04:45:46.997Z,20.3
2017-02-17T04:46:15.161Z,20.44
2017-02-17T04:46:43.301Z,20.44
2017-02-17T04:47:11.316Z,20.51
2017-02-17T04:47:39.304Z,20.46
2017-02-17T04:48:07.420Z,20.49
2017-02-17T04:48:35.639Z,20.51
2017-02-17T04:49:03.863Z,20.46
2017-02-17T04:49:31.896Z,20.46
2017-02-17T04:49:59.901Z,20.44
2017-02-17T04:50:28.117Z,20.46
2017-02-17T04:50:56.248Z,20.54
2017-02-17T04:51:24.384Z,20.44
2017-02-17T04:51:52.426Z,20.53
2017-02-17T04:52:20.554Z,20.44
2017-02-17T04:52:48.702Z,20.51
2017-02-17T04:53:16.674Z,20.49
2017-02-17T04:53:44.935Z,20.48
2017-02-17T04:54:13.098Z,20.46
2017-02-17T04:54:41.111Z,20.41
2017-02-17T04:55:09.334Z,20.44
2017-02-17T04:55:37.411Z,20.44
2017-02-17T04:56:05.539Z,20.44
2017-02-17T04:56:33.626Z,20.44
2017-02-17T04:57:01.726Z,20.38
2017-02-17T04:57:29.644Z,20.4
2017-02-17T04:57:57.757Z,20.29
2017-02-17T04:58:25.915Z,20.35
2017-02-17T04:58:54.204Z,20.3
2017-02-17T04:59:22.372Z,20.44
2017-02-17T04:59:50.557Z,20.42
2017-02-17T05:00:18.716Z,20.29
2017-02-17T05:00:46.830Z,20.38
2017-02-17T05:01:14.927Z,20.34
2017-02-17T05:01:42.894Z,20.35
2017-02-17T05:02:10.925Z,20.4
2017-02-17T05:02:39.102Z,20.35
2017-02-17T05:03:07.220Z,20.41
2017-02-17T05:03:35.340Z,20.42
2017-02-17T05:04:03.687Z,20.37
2017-02-17T05:04:31.920Z,20.3
2017-02-17T05:04:59.947Z,20.37
2017-02-17T05:05:27.985Z,20.38
2017-02-17T05:05:56.090Z,20.37
2017-02-17T05:06:24.113Z,20.34
2017-02-17T05:06:52.333Z,20.41
2017-02-17T05:07:20.334Z,20.32
2017-02-17T05:07:48.552Z,20.29
2017-02-17T05:08:16.626Z,20.35
2017-02-17T05:08:44.885Z,20.41
2017-02-17T05:09:13.109Z,20.38
2017-02-17T05:09:41.171Z,20.37
2017-02-17T05:10:09.174Z,20.34
2017-02-17T05:10:37.442Z,20.37
2017-02-17T05:11:05.645Z,20.37
2017-02-17T05:11:33.799Z,20.35
2017-02-17T05:12:01.862Z,20.32
2017-02-17T05:12:30.086Z,20.23
2017-02-17T05:12:58.277Z,20.23
2017-02-17T05:13:26.365Z,20.27
2017-02-17T05:13:54.543Z,20.29
2017-02-17T05:14:22.583Z,20.22
2017-02-17T05:14:50.692Z,20.35
2017-02-17T05:15:18.616Z,20.37
2017-02-17T05:15:46.817Z,20.27
2017-02-17T05:16:14.829Z,20.26
2017-02-17T05:16:43.015Z,20.23
2017-02-17T05:17:11.230Z,20.29
2017-02-17T05:17:39.360Z,20.37
2017-02-17T05:18:07.559Z,20.27
2017-02-17T05:18:35.667Z,20.32
2017-02-17T05:19:03.788Z,20.35
2017-02-17T05:19:31.905Z,20.34
2017-02-17T05:20:00.092Z,20.29
2017-02-17T05:20:28.279Z,20.29
2017-02-17T05:20:56.342Z,20.35
2017-02-17T05:21:24.344Z,20.29
2017-02-17T05:21:52.494Z,20.32
2017-02-17T05:22:20.589Z,20.34
2017-02-17T05:22:48.706Z,20.37
2017-02-17T05:23:16.768Z,20.35
2017-02-17T05:23:44.968Z,20.35
2017-02-17T05:24:13.300Z,20.32
2017-02-17T05:24:41.493Z,20.37
2017-02-17T05:25:09.560Z,20.35
2017-02-17T05:25:37.650Z,20.41
2017-02-17T05:26:05.759Z,20.27
2017-02-17T05:26:33.821Z,20.35
2017-02-17T05:27:01.760Z,20.41
2017-02-17T05:27:29.861Z,20.44
2017-02-17T05:27:57.989Z,20.34
2017-02-17T05:28:25.883Z,20.35
2017-02-17T05:28:53.902Z,20.38
2017-02-17T05:29:22.101Z,20.35
2017-02-17T05:29:50.206Z,20.3
2017-02-17T05:30:18.356Z,20.34
2017-02-17T05:30:46.364Z,20.27
2017-02-17T05:31:14.571Z,20.32
2017-02-17T05:31:42.656Z,20.38
2017-02-17T05:32:10.808Z,20.27
2017-02-17T05:32:38.922Z,20.35
2017-02-17T05:33:07.033Z,20.35
2017-02-17T05:33:35.089Z,20.35
2017-02-17T05:34:03.244Z,20.34
2017-02-17T05:34:31.489Z,20.35
2017-02-17T05:34:59.582Z,20.35
2017-02-17T05:35:27.765Z,20.34
2017-02-17T05:35:55.899Z,20.3
2017-02-17T05:36:23.775Z,20.34
2017-02-17T05:36:51.913Z,20.3
2017-02-17T05:37:20.022Z,20.27
2017-02-17T05:37:48.159Z,20.32
2017-02-17T05:38:16.283Z,20.3
2017-02-17T05:38:44.545Z,20.32
2017-02-17T05:39:12.766Z,20.32
2017-02-17T05:39:40.892Z,20.34
2017-02-17T05:40:09.104Z,20.32
2017-02-17T05:40:37.123Z,20.29
2017-02-17T05:41:05.254Z,20.37
2017-02-17T05:41:33.421Z,20.3
2017-02-17T05:42:01.633Z,20.32
2017-02-17T05:42:29.765Z,20.26
2017-02-17T05:42:57.870Z,20.26
2017-02-17T05:43:25.944Z,20.35
2017-02-17T05:43:54.063Z,20.32
2017-02-17T05:44:22.412Z,20.3
2017-02-17T05:44:50.514Z,20.37
2017-02-17T05:45:18.618Z,20.3
2017-02-17T05:45:46.801Z,20.27
2017-02-17T05:46:14.881Z,20.23
2017-02-17T05:46:42.997Z,20.23
2017-02-17T05:47:11.201Z,20.29
2017-02-17T05:47:39.396Z,20.23
2017-02-17T05:48:07.538Z,20.3
2017-02-17T05:48:35.596Z,20.23
2017-02-17T05:49:03.776Z,20.25
2017-02-17T05:49:32.279Z,20.22
2017-02-17T05:50:00.349Z,20.12
2017-02-17T05:50:28.386Z,20.22
2017-02-17T05:50:56.535Z,20.23
2017-02-17T05:51:24.573Z,20.19
2017-02-17T05:51:52.578Z,20.18
2017-02-17T05:52:20.597Z,20.18
2017-02-17T05:52:48.741Z,20.2
2017-02-17T05:53:16.796Z,20.19
2017-02-17T05:53:44.895Z,20.07
2017-02-17T05:54:12.941Z,20.18
2017-02-17T05:54:41.269Z,20.22
2017-02-17T05:55:09.233Z,20.07
2017-02-17T05:55:37.366Z,20.11
2017-02-17T05:56:05.470Z,20.12
2017-02-17T05:56:33.676Z,20.12
2017-02-17T05:57:01.890Z,20.11
2017-02-17T05:57:29.944Z,20.11
2017-02-17T05:57:58.022Z,20.05
2017-02-17T05:58:26.186Z,20.11
2017-02-17T05:58:54.269Z,20.04
2017-02-17T05:59:22.486Z,20.04
2017-02-17T05:59:50.703Z,20.11
2017-02-17T06:00:18.809Z,20.12
2017-02-17T06:00:47.033Z,20.15
2017-02-17T06:01:15.154Z,20.08
2017-02-17T06:01:43.268Z,20.1
2017-02-17T06:02:11.347Z,20.1
2017-02-17T06:02:39.469Z,20.02
2017-02-17T06:03:07.697Z,20.07
2017-02-17T06:03:35.797Z,20.04
2017-02-17T06:04:04.057Z,20.1